Time;durP1;ratioP1;P1;durP2;ratioP2;P2;SDS_P1;SDS_P2;PMS_P1;PMS_P2;Temp;Humidity;BMP_temperature;BMP_pressure;BME280_temperature;BME280_humidity;BME280_pressure;Samples;Min_cycle;Max_cycle;Signal;HPM_P1;HPM_P2
2022/01/25 00:15:43;;;;;;;28.45;13.05;;;;;;;-5.52;100.00;101247.88;4875089;29;20052;-54
2022/01/25 00:31:00;;;;;;;31.77;13.73;;;;;;;-5.62;100.00;101221.31;4894157;29;20653;-54
2022/01/25 00:33:16;;;;;;;38.17;14.00;;;;;;;-5.63;100.00;101229.84;4889422;29;20112;-57
2022/01/25 00:36:04;;;;;;;34.13;13.80;;;;;;;-5.84;100.00;101224.19;4892809;29;20358;-53
2022/01/25 00:38:49;;;;;;;40.63;15.93;;;;;;;-5.79;100.00;101222.75;4890199;29;20067;-53
2022/01/25 00:41:35;;;;;;;38.92;14.95;;;;;;;-5.61;100.00;101211.06;4889568;29;20055;-63
2022/01/25 00:44:20;;;;;;;41.80;15.20;;;;;;;-5.17;100.00;101208.81;4889290;29;20072;-57
2022/01/25 00:47:07;;;;;;;41.90;16.05;;;;;;;-5.22;100.00;101194.69;4869722;29;20157;-53
2022/01/25 00:49:53;;;;;;;44.30;17.58;;;;;;;-5.14;100.00;101199.53;4890457;29;20089;-58
2022/01/25 00:55:32;;;;;;;39.72;16.02;;;;;;;-5.41;100.00;101168.47;4896471;29;20646;-64
2022/01/25 00:58:17;;;;;;;43.40;16.10;;;;;;;-5.52;100.00;101184.94;4876875;29;20062;-57
2022/01/25 01:01:01;;;;;;;46.25;15.95;;;;;;;-5.53;100.00;101178.00;4886280;29;20060;-57
2022/01/25 01:03:46;;;;;;;44.47;14.77;;;;;;;-5.64;100.00;101177.31;4889362;29;20144;-56
2022/01/25 01:06:31;;;;;;;48.78;17.08;;;;;;;-5.54;100.00;101169.34;4891183;29;20056;-57
2022/01/25 01:09:20;;;;;;;41.80;16.02;;;;;;;-5.58;100.00;101169.06;4889350;29;20115;-53
2022/01/25 01:12:17;;;;;;;46.47;15.60;;;;;;;-5.41;100.00;101165.88;4891200;29;20059;-57
2022/01/25 01:15:11;;;;;;;45.78;16.23;;;;;;;-5.33;100.00;101159.50;4876262;29;20071;-56
2022/01/25 01:30:42;;;;;;;41.05;15.93;;;;;;;-5.64;100.00;101127.31;4889464;29;20122;-54
2022/01/25 01:42:56;;;;;;;36.33;14.75;;;;;;;-5.25;100.00;101098.88;4870004;29;20124;-53
2022/01/25 01:45:58;;;;;;;37.38;13.68;;;;;;;-5.26;100.00;101105.72;4870630;29;20149;-64
2022/01/25 01:51:38;;;;;;;38.85;14.93;;;;;;;-5.83;100.00;101112.34;4866638;29;20533;-55
2022/01/25 01:54:23;;;;;;;37.00;14.30;;;;;;;-5.84;100.00;101096.75;4855720;29;20060;-54
2022/01/25 01:57:09;;;;;;;42.28;15.23;;;;;;;-5.81;100.00;101095.25;4869829;29;20097;-64
2022/01/25 01:59:54;;;;;;;40.05;15.15;;;;;;;-6.09;100.00;101083.91;4865905;29;20390;-53
2022/01/25 02:02:40;;;;;;;38.83;14.75;;;;;;;-5.84;100.00;101079.59;4857434;29;20112;-52
2022/01/25 02:05:25;;;;;;;38.17;14.23;;;;;;;-5.50;100.00;101067.13;4854069;29;20070;-56
2022/01/25 02:08:10;;;;;;;39.97;14.02;;;;;;;-5.69;100.00;101053.81;4866836;29;20057;-62
2022/01/25 02:10:55;;;;;;;41.58;14.95;;;;;;;-5.65;100.00;101060.97;4852369;29;20061;-59
2022/01/25 02:13:42;;;;;;;40.30;15.18;;;;;;;-5.61;100.00;101042.28;4855016;29;20052;-56
2022/01/25 02:22:29;;;;;;;39.92;15.18;;;;;;;-4.61;100.00;101046.78;4888467;29;20563;-51
2022/01/25 02:25:15;;;;;;;37.80;15.15;;;;;;;-4.43;100.00;101047.91;4889026;29;20132;-63
2022/01/25 02:28:00;;;;;;;37.85;15.85;;;;;;;-4.66;100.00;101043.06;4888176;29;20425;-58
2022/01/25 02:30:45;;;;;;;38.33;14.73;;;;;;;-4.81;100.00;101035.28;4886882;29;20099;-55
2022/01/25 02:33:30;;;;;;;41.80;16.15;;;;;;;-4.78;100.00;101031.16;4889619;29;20060;-63
2022/01/25 02:36:22;;;;;;;;;;;;;;;-4.76;100.00;101022.63;4881633;29;20642;-53
2022/01/25 02:39:06;;;;;;;42.47;15.52;;;;;;;-5.05;100.00;101026.03;4890609;29;19976;-57
2022/01/25 02:41:52;;;;;;;39.00;15.50;;;;;;;-4.75;100.00;101019.22;4886164;29;20104;-56
2022/01/25 02:44:38;;;;;;;41.13;15.70;;;;;;;-5.02;100.00;101011.59;4883604;29;20526;-52
2022/01/25 02:50:27;;;;;;;44.53;16.23;;;;;;;-4.53;100.00;101011.91;4889476;29;20639;-57
2022/01/25 02:53:12;;;;;;;40.97;16.05;;;;;;;-4.35;100.00;101000.97;4886561;29;20111;-55
2022/01/25 02:55:56;;;;;;;44.20;16.80;;;;;;;-4.26;100.00;100998.00;4888052;29;20051;-56
2022/01/25 02:58:42;;;;;;;39.45;15.55;;;;;;;-4.67;100.00;100999.88;4888096;29;20071;-56
2022/01/25 03:01:28;;;;;;;38.85;14.77;;;;;;;-4.55;100.00;100998.88;4889814;29;20095;-56
2022/01/25 03:04:16;;;;;;;38.15;15.02;;;;;;;-4.40;100.00;100997.19;4887189;29;20075;-57
2022/01/25 03:07:00;;;;;;;35.10;14.95;;;;;;;-4.39;100.00;100996.41;4888189;29;20563;-63
2022/01/25 03:09:45;;;;;;;38.05;14.80;;;;;;;-4.77;100.00;100998.44;4885381;29;20123;-59
2022/01/25 03:12:55;;;;;;;41.03;15.68;;;;;;;-4.53;100.00;100989.53;4888528;29;20410;-59
2022/01/25 03:24:06;;;;;;;41.03;15.15;;;;;;;-4.51;100.00;100987.03;4883157;29;20104;-66
2022/01/25 03:26:51;;;;;;;35.28;14.50;;;;;;;-4.50;100.00;100984.56;4890977;29;20054;-65
2022/01/25 03:29:36;;;;;;;45.40;15.65;;;;;;;-4.47;100.00;100986.41;4884448;29;20044;-64
2022/01/25 03:32:21;;;;;;;45.05;15.82;;;;;;;-4.46;100.00;100970.97;4886985;29;20099;-64
2022/01/25 03:35:08;;;;;;;44.47;16.33;;;;;;;-4.21;100.00;100994.88;4891765;29;20095;-60
2022/01/25 03:37:54;;;;;;;39.50;15.77;;;;;;;-4.45;100.00;100996.06;4893769;29;20055;-61
2022/01/25 03:40:41;;;;;;;37.15;13.85;;;;;;;-4.33;100.00;100998.44;4885866;29;20052;-63
2022/01/25 03:43:30;;;;;;;38.10;14.75;;;;;;;-4.45;100.00;100990.88;4881309;29;20071;-60
2022/01/25 03:46:22;;;;;;;37.92;14.30;;;;;;;-4.65;100.00;100980.16;4868900;29;20134;-61
2022/01/25 03:52:12;;;;;;;34.78;14.32;;;;;;;-4.72;100.00;100993.56;4891982;29;20051;-61
2022/01/25 03:54:58;;;;;;;37.97;14.50;;;;;;;-4.75;100.00;100986.47;4892396;29;20567;-60
2022/01/25 03:57:44;;;;;;;41.25;15.32;;;;;;;-4.76;100.00;100982.13;4876045;29;20474;-56
2022/01/25 04:00:32;;;;;;;35.78;15.07;;;;;;;-4.54;100.00;100976.50;4891945;29;20303;-63
2022/01/25 04:03:31;;;;;;;36.83;14.15;;;;;;;-4.84;100.00;100967.84;4874853;29;20590;-56
2022/01/25 04:06:19;;;;;;;39.60;16.15;;;;;;;-4.70;100.00;100958.31;4876710;29;20052;-55
2022/01/25 04:09:09;;;;;;;34.78;13.98;;;;;;;-4.86;100.00;100956.53;4885801;29;20144;-60
2022/01/25 04:11:54;;;;;;;35.65;14.75;;;;;;;-4.97;100.00;100952.41;4881700;29;20534;-60
2022/01/25 04:14:39;;;;;;;31.73;13.35;;;;;;;-4.45;100.00;100943.38;4883371;29;20132;-65
2022/01/25 04:17:24;;;;;;;33.30;13.13;;;;;;;-4.23;100.00;100951.59;4876643;29;20084;-62
2022/01/25 04:20:21;;;;;;;28.42;13.20;;;;;;;-4.41;100.00;100948.84;4889856;29;20063;-70
2022/01/25 04:26:09;;;;;;;29.17;12.40;;;;;;;-4.34;100.00;100938.03;4894970;29;20166;-66
2022/01/25 04:28:54;;;;;;;30.40;12.80;;;;;;;-4.21;100.00;100932.75;4883422;29;20051;-61
2022/01/25 04:31:40;;;;;;;29.13;12.50;;;;;;;-4.36;100.00;100925.81;4874605;29;20718;-68
2022/01/25 04:34:40;;;;;;;32.35;12.98;;;;;;;-4.30;100.00;100919.28;4883196;29;20476;-55
2022/01/25 04:49:56;;;;;;;33.70;12.77;;;;;;;-4.63;100.00;100919.94;4900050;29;20078;-59
2022/01/25 04:52:54;;;;;;;31.27;13.27;;;;;;;-4.47;100.00;100909.69;4897772;29;20142;-59
2022/01/25 04:55:48;;;;;;;27.40;12.98;;;;;;;-4.37;100.00;100909.38;4891931;29;20052;-65
2022/01/25 04:58:45;;;;;;;36.60;16.27;;;;;;;-4.44;100.00;100899.47;4899941;29;20056;-54
2022/01/25 05:01:30;;;;;;;33.20;15.00;;;;;;;-4.46;100.00;100893.34;4888263;29;20145;-60
2022/01/25 05:04:23;;;;;;;31.65;14.05;;;;;;;-4.36;100.00;100893.03;4880529;29;20420;-56
2022/01/25 05:07:25;;;;;;;33.63;14.45;;;;;;;-4.27;100.00;100891.00;4904208;29;20176;-53
2022/01/25 05:10:11;;;;;;;32.97;13.93;;;;;;;-4.45;100.00;100889.03;4888103;29;20048;-60
2022/01/25 05:13:17;;;;;;;32.00;14.02;;;;;;;-4.07;100.00;100886.91;4892370;29;20103;-57
2022/01/25 05:18:50;;;;;;;28.85;12.90;;;;;;;-4.39;100.00;100879.97;4873185;29;20749;-55
2022/01/25 05:25:00;;;;;;;27.63;12.20;;;;;;;-4.59;100.00;100875.31;4906754;29;20055;-53
2022/01/25 05:27:44;;;;;;;29.85;13.07;;;;;;;-4.53;100.00;100878.28;4894957;29;20119;-54
2022/01/25 05:30:29;;;;;;;30.52;12.82;;;;;;;-4.88;100.00;100873.66;4907568;29;20102;-55
2022/01/25 05:33:14;;;;;;;31.83;14.13;;;;;;;-4.86;100.00;100868.59;4908250;29;20147;-55
2022/01/25 05:36:10;;;;;;;28.85;12.13;;;;;;;-5.05;100.00;100864.06;4907967;29;20201;-66
2022/01/25 05:39:02;;;;;;;26.77;11.95;;;;;;;-4.99;100.00;100876.41;4893267;29;20055;-58
2022/01/25 05:41:55;;;;;;;33.45;12.35;;;;;;;-5.40;100.00;100863.66;4883158;29;20064;-52
2022/01/25 05:44:53;;;;;;;28.15;11.35;;;;;;;-5.62;100.00;100860.56;4894240;29;20153;-62
2022/01/25 05:47:40;;;;;;;29.85;10.93;;;;;;;-5.81;100.00;100852.53;4881888;29;20138;-55
2022/01/25 05:50:25;;;;;;;28.83;11.25;;;;;;;-5.67;100.00;100840.41;4893169;29;20148;-57
2022/01/25 05:53:10;;;;;;;;;;;;;;;-5.78;100.00;100844.03;4894231;29;20617;-61
2022/01/25 05:55:55;;;;;;;25.20;9.48;;;;;;;-5.96;100.00;100850.72;4889505;29;19926;-66
2022/01/25 05:58:40;;;;;;;28.63;10.98;;;;;;;-5.82;100.00;100834.34;4892446;29;20047;-65
2022/01/25 06:01:25;;;;;;;26.83;11.23;;;;;;;-5.73;100.00;100838.34;4871794;29;20088;-55
2022/01/25 06:04:14;;;;;;;24.95;11.95;;;;;;;-5.43;100.00;100841.88;4885941;29;20059;-65
2022/01/25 06:06:59;;;;;;;26.25;11.35;;;;;;;-5.24;100.00;100832.75;4887582;29;20055;-56
2022/01/25 06:09:44;;;;;;;;;;;;;;;-4.92;100.00;100834.59;4891221;29;20089;-58
2022/01/25 06:12:29;;;;;;;26.10;10.25;;;;;;;-5.14;100.00;100831.59;4873170;29;19933;-53
2022/01/25 06:15:16;;;;;;;20.05;9.18;;;;;;;-4.88;100.00;100826.22;4875312;29;20107;-60
2022/01/25 06:18:02;;;;;;;23.17;10.20;;;;;;;-4.88;100.00;100824.53;4866321;29;20067;-62
2022/01/25 06:20:47;;;;;;;25.27;11.57;;;;;;;-5.00;100.00;100825.50;4891671;29;20059;-60
2022/01/25 06:23:31;;;;;;;;;;;;;;;-5.08;100.00;100819.00;4874164;29;20140;-58
2022/01/25 06:26:18;;;;;;;27.23;11.03;;;;;;;-4.94;100.00;100813.81;4878711;29;20475;-59
2022/01/25 06:29:03;;;;;;;26.33;10.43;;;;;;;-4.97;100.00;100805.91;4883927;29;20312;-66
2022/01/25 06:31:48;;;;;;;28.45;11.63;;;;;;;-5.05;100.00;100808.84;4891075;29;20098;-53
2022/01/25 06:34:33;;;;;;;29.15;12.40;;;;;;;-4.72;100.00;100802.13;4868312;29;20119;-60
2022/01/25 06:37:19;;;;;;;30.35;12.98;;;;;;;-4.78;100.00;100796.59;4889300;29;20413;-55
2022/01/25 06:40:07;;;;;;;29.85;12.27;;;;;;;-4.74;100.00;100793.38;4875978;29;20052;-56
2022/01/25 06:42:53;;;;;;;30.00;11.50;;;;;;;-5.11;100.00;100791.28;4886966;29;20068;-57
2022/01/25 06:45:40;;;;;;;30.30;11.38;;;;;;;-5.13;100.00;100784.25;4890945;29;20047;-58
2022/01/25 06:48:28;;;;;;;32.88;12.60;;;;;;;-5.25;100.00;100788.72;4888606;29;20063;-56
2022/01/25 06:51:13;;;;;;;29.08;12.40;;;;;;;-5.17;100.00;100790.06;4886621;29;20097;-60
2022/01/25 06:53:58;;;;;;;27.70;12.30;;;;;;;-5.29;100.00;100786.75;4871218;29;20164;-55
2022/01/25 06:56:43;;;;;;;26.58;10.75;;;;;;;-5.44;100.00;100786.75;4883088;29;20063;-54
2022/01/25 06:59:27;;;;;;;;;;;;;;;-5.25;100.00;100766.34;4881930;29;20422;-58
2022/01/25 07:02:13;;;;;;;24.73;9.70;;;;;;;-5.30;100.00;100759.16;4888463;29;19931;-66
2022/01/25 07:04:58;;;;;;;22.77;10.70;;;;;;;-5.12;100.00;100775.69;4890057;29;20391;-60
2022/01/25 07:07:44;;;;;;;23.60;9.70;;;;;;;-5.10;100.00;100766.34;4889737;29;20101;-56
2022/01/25 07:10:29;;;;;;;24.60;10.02;;;;;;;-5.16;100.00;100760.81;4891749;29;20449;-59
2022/01/25 07:13:14;;;;;;;25.75;11.63;;;;;;;-4.82;100.00;100761.94;4887108;29;20095;-57
2022/01/25 07:15:58;;;;;;;22.17;10.32;;;;;;;-4.82;100.00;100755.03;4891270;29;20052;-62
2022/01/25 07:18:43;;;;;;;;;;;;;;;-4.77;100.00;100770.81;4880480;29;20055;-59
2022/01/25 07:21:29;;;;;;;25.70;10.32;;;;;;;-5.28;100.00;100757.53;4890231;29;19974;-67
2022/01/25 07:24:15;;;;;;;24.05;10.30;;;;;;;-5.24;100.00;100754.31;4877313;29;20064;-52
2022/01/25 07:27:02;;;;;;;26.40;10.73;;;;;;;-4.94;100.00;100746.59;4890974;29;20096;-53
2022/01/25 07:29:47;;;;;;;24.27;10.65;;;;;;;-4.67;100.00;100723.94;4891932;29;20075;-59
2022/01/25 07:32:32;;;;;;;;;;;;;;;-4.83;100.00;100743.75;4893075;29;20230;-57
2022/01/25 07:35:18;;;;;;;25.73;11.05;;;;;;;-4.74;100.00;100732.22;4894855;29;19925;-66
2022/01/25 07:38:04;;;;;;;29.10;12.07;;;;;;;-4.66;100.00;100728.34;4876515;29;20140;-58
2022/01/25 07:40:49;;;;;;;37.22;13.77;;;;;;;-4.56;100.00;100722.84;4882807;29;20097;-60
2022/01/25 07:43:34;;;;;;;31.00;12.50;;;;;;;-4.63;100.00;100714.69;4878509;29;20112;-59
2022/01/25 07:46:18;;;;;;;33.30;12.52;;;;;;;-4.21;100.00;100717.88;4891185;29;20064;-62
2022/01/25 07:49:04;;;;;;;31.17;11.88;;;;;;;-4.08;100.00;100712.50;4893020;29;20418;-60
2022/01/25 07:51:49;;;;;;;37.75;13.88;;;;;;;-4.18;100.00;100710.28;4879767;29;20067;-53
2022/01/25 07:54:34;;;;;;;33.33;14.18;;;;;;;-4.17;100.00;100704.28;4885539;29;20425;-66
2022/01/25 07:57:19;;;;;;;35.10;13.57;;;;;;;-4.58;100.00;100705.47;4890022;29;20052;-56
2022/01/25 08:00:05;;;;;;;38.00;14.77;;;;;;;-4.37;100.00;100697.16;4889398;29;20055;-59
2022/01/25 08:02:57;;;;;;;34.85;13.60;;;;;;;-4.13;100.00;100694.97;4887646;29;20059;-60
2022/01/25 08:05:44;;;;;;;33.65;13.48;;;;;;;-4.13;100.00;100701.03;4891982;29;20099;-61
2022/01/25 08:08:30;;;;;;;38.47;13.85;;;;;;;-3.81;100.00;100682.88;4875400;29;20052;-67
2022/01/25 08:11:15;;;;;;;40.22;14.52;;;;;;;-3.57;100.00;100681.50;4890081;29;20131;-65
2022/01/25 08:14:12;;;;;;;39.42;14.18;;;;;;;-3.96;100.00;100682.06;4872530;29;20532;-65
2022/01/25 08:16:57;;;;;;;38.22;14.40;;;;;;;-3.71;100.00;100668.69;4887758;29;20180;-56
2022/01/25 08:19:44;;;;;;;39.08;15.30;;;;;;;-3.68;100.00;100661.94;4877600;29;20689;-55
2022/01/25 08:22:30;;;;;;;43.75;15.45;;;;;;;-3.55;100.00;100677.31;4879964;29;20131;-61
2022/01/25 08:25:15;;;;;;;37.53;14.63;;;;;;;-3.30;100.00;100667.31;4889335;29;20056;-58
2022/01/25 08:28:01;;;;;;;39.10;15.98;;;;;;;-3.18;100.00;100656.63;4872825;29;20136;-58
2022/01/25 08:30:47;;;;;;;41.85;17.58;;;;;;;-3.39;100.00;100655.59;4877902;29;20157;-65
2022/01/25 08:33:32;;;;;;;40.72;16.38;;;;;;;-3.49;100.00;100659.44;4887374;29;20192;-61
2022/01/25 08:36:17;;;;;;;38.10;14.57;;;;;;;-3.48;100.00;100650.84;4888331;29;20112;-67
2022/01/25 08:39:04;;;;;;;40.85;16.65;;;;;;;-3.57;100.00;100634.84;4891292;29;20160;-58
2022/01/25 08:41:49;;;;;;;41.40;15.65;;;;;;;-3.09;100.00;100626.84;4888380;29;20060;-61
2022/01/25 08:44:34;;;;;;;46.08;17.40;;;;;;;-2.97;100.00;100624.81;4880933;29;20530;-58
2022/01/25 08:47:20;;;;;;;41.05;16.05;;;;;;;-2.87;100.00;100640.00;4900332;29;20088;-60
2022/01/25 08:50:08;;;;;;;;;;;;;;;-3.14;100.00;100624.84;4892137;29;20079;-63
2022/01/25 08:52:53;;;;;;;42.88;15.65;;;;;;;-3.36;100.00;100624.66;4893585;29;19934;-58
2022/01/25 08:55:38;;;;;;;45.17;16.05;;;;;;;-3.24;100.00;100620.06;4890792;29;20194;-56
2022/01/25 08:58:23;;;;;;;37.67;15.02;;;;;;;-3.20;100.00;100611.59;4885504;29;20055;-58
2022/01/25 09:01:08;;;;;;;36.60;15.20;;;;;;;-3.57;100.00;100608.94;4885515;29;20059;-56
2022/01/25 09:03:57;;;;;;;36.30;14.02;;;;;;;-3.89;100.00;100608.16;4889779;29;20425;-57
2022/01/25 09:06:41;;;;;;;41.10;16.08;;;;;;;-3.84;100.00;100601.53;4886377;29;20059;-68
2022/01/25 09:09:27;;;;;;;36.63;14.75;;;;;;;-3.95;100.00;100581.97;4885371;29;20139;-67
2022/01/25 09:12:12;;;;;;;39.70;15.40;;;;;;;-3.47;100.00;100581.78;4886719;29;20104;-57
2022/01/25 09:14:57;;;;;;;39.22;15.25;;;;;;;-3.15;100.00;100576.41;4882726;29;20051;-57
2022/01/25 09:17:42;;;;;;;38.85;15.68;;;;;;;-3.00;100.00;100585.78;4885850;29;20476;-58
2022/01/25 09:20:26;;;;;;;37.60;14.63;;;;;;;-3.17;100.00;100578.06;4877357;29;20116;-55
2022/01/25 09:23:12;;;;;;;42.20;15.05;;;;;;;-3.39;100.00;100567.47;4874949;29;20080;-59
2022/01/25 09:25:57;;;;;;;45.40;16.10;;;;;;;-4.06;100.00;100565.00;4876511;29;20669;-62
2022/01/25 09:28:43;;;;;;;37.75;14.35;;;;;;;-4.07;100.00;100563.25;4871394;29;20132;-59
2022/01/25 09:31:28;;;;;;;39.83;14.85;;;;;;;-3.70;100.00;100567.72;4888729;29;20127;-54
2022/01/25 09:34:15;;;;;;;35.10;14.77;;;;;;;-3.95;100.00;100564.75;4886781;29;20108;-57
2022/01/25 09:37:02;;;;;;;44.03;16.10;;;;;;;-3.76;100.00;100559.63;4898520;29;20172;-57
2022/01/25 09:39:47;;;;;;;39.70;15.65;;;;;;;-3.59;100.00;100557.88;4871775;29;20139;-55
2022/01/25 09:42:32;;;;;;;42.25;16.02;;;;;;;-3.66;100.00;100556.69;4879014;29;20116;-58
2022/01/25 09:45:18;;;;;;;38.92;14.23;;;;;;;-3.49;100.00;100555.78;4879197;29;20063;-56
2022/01/25 09:48:04;;;;;;;41.78;15.20;;;;;;;-4.06;100.00;100547.78;4879359;29;20056;-58
2022/01/25 09:50:50;;;;;;;41.42;14.65;;;;;;;-4.49;100.00;100523.13;4878103;29;20059;-56
2022/01/25 09:53:37;;;;;;;40.65;15.13;;;;;;;-4.46;100.00;100533.66;4883205;29;20207;-58
2022/01/25 09:56:21;;;;;;;42.33;16.60;;;;;;;-4.32;100.00;100529.19;4883194;29;20059;-52
2022/01/25 09:59:07;;;;;;;40.13;16.00;;;;;;;-4.32;100.00;100518.81;4884257;29;20052;-61
2022/01/25 10:01:54;;;;;;;39.72;15.25;;;;;;;-4.08;100.00;100517.47;4886291;29;20050;-62
2022/01/25 10:04:41;;;;;;;45.30;16.83;;;;;;;-4.04;100.00;100498.66;4883592;29;20056;-65
2022/01/25 10:07:29;;;;;;;40.97;15.27;;;;;;;-3.70;100.00;100491.69;4889600;29;20557;-60
2022/01/25 10:10:14;;;;;;;45.28;16.35;;;;;;;-3.80;100.00;100484.31;4884709;29;20050;-56
2022/01/25 10:13:17;;;;;;;43.90;14.98;;;;;;;-3.52;100.00;100480.47;4873811;29;20060;-59
2022/01/25 10:16:11;;;;;;;42.88;15.45;;;;;;;-3.61;100.00;100480.06;4868065;29;20091;-56
2022/01/25 10:19:07;;;;;;;46.60;16.77;;;;;;;-3.63;100.00;100473.94;4883959;29;20079;-53
2022/01/25 10:21:54;;;;;;;46.03;15.95;;;;;;;-3.59;100.00;100474.94;4885988;29;20056;-59
2022/01/25 10:24:39;;;;;;;42.22;14.73;;;;;;;-3.79;100.00;100474.03;4886787;29;20109;-57
2022/01/25 10:30:38;;;;;;;42.40;15.32;;;;;;;-3.98;100.00;100468.78;4885831;29;20139;-65
2022/01/25 10:33:37;;;;;;;42.97;15.80;;;;;;;-3.99;100.00;100447.97;4890010;29;20059;-59
2022/01/25 10:36:24;;;;;;;41.35;16.52;;;;;;;-3.73;100.00;100448.38;4888435;29;20646;-57
2022/01/25 10:39:09;;;;;;;42.72;14.43;;;;;;;-4.09;100.00;100444.06;4887182;29;20151;-62
2022/01/25 10:42:10;;;;;;;45.97;15.02;;;;;;;-4.00;100.00;100434.13;4861460;29;20096;-58
2022/01/25 10:45:03;;;;;;;41.80;15.63;;;;;;;-3.89;100.00;100426.88;4882161;29;20043;-63
2022/01/25 10:47:52;;;;;;;39.83;14.45;;;;;;;-4.05;100.00;100414.00;4886037;29;20073;-66
2022/01/25 10:50:42;;;;;;;37.13;14.70;;;;;;;-4.30;100.00;100421.44;4889178;29;20055;-58
2022/01/25 10:53:27;;;;;;;39.30;14.80;;;;;;;-4.17;100.00;100416.03;4888480;29;20051;-69
2022/01/25 10:56:12;;;;;;;40.75;14.68;;;;;;;-4.04;100.00;100410.63;4888280;29;20080;-62
2022/01/25 10:59:01;;;;;;;39.60;14.77;;;;;;;-3.94;100.00;100408.53;4889155;29;20136;-57
2022/01/25 11:02:00;;;;;;;39.40;14.48;;;;;;;-3.87;100.00;100410.63;4886496;29;20096;-66
2022/01/25 11:04:46;;;;;;;35.80;15.15;;;;;;;-4.00;100.00;100410.81;4872924;29;20135;-60
2022/01/25 11:07:44;;;;;;;33.33;13.20;;;;;;;-4.18;100.00;100398.72;4888466;29;20052;-56
2022/01/25 11:10:33;;;;;;;38.03;14.07;;;;;;;-4.11;100.00;100393.03;4880562;29;20116;-56
2022/01/25 11:16:14;;;;;;;43.35;15.07;;;;;;;-4.06;100.00;100374.31;4884891;29;20083;-67
2022/01/25 11:18:59;;;;;;;39.45;14.52;;;;;;;-3.87;100.00;100381.22;4886449;29;20174;-60
2022/01/25 11:21:45;;;;;;;35.38;14.00;;;;;;;-4.12;100.00;100380.91;4875034;29;20064;-69
2022/01/25 11:24:32;;;;;;;34.55;13.85;;;;;;;-4.30;100.00;100386.09;4871087;29;20052;-58
2022/01/25 11:27:19;;;;;;;38.60;15.25;;;;;;;-4.10;100.00;100374.97;4884795;29;20211;-57
2022/01/25 11:30:09;;;;;;;39.65;14.65;;;;;;;-3.89;100.00;100375.06;4873652;29;20155;-59
2022/01/25 11:32:54;;;;;;;36.90;14.75;;;;;;;-4.08;100.00;100362.97;4886194;29;20056;-58
2022/01/25 11:35:41;;;;;;;37.15;13.40;;;;;;;-4.31;100.00;100349.78;4880907;29;20445;-60
2022/01/25 11:38:38;;;;;;;36.38;14.15;;;;;;;-4.53;100.00;100352.16;4883935;29;20109;-58
2022/01/25 11:41:26;;;;;;;43.28;15.13;;;;;;;-4.54;100.00;100328.00;4882837;29;20071;-57
2022/01/25 11:44:13;;;;;;;;;;;;;;;-4.57;100.00;100327.84;4883784;29;20139;-57
2022/01/25 11:47:11;;;;;;;34.75;13.35;;;;;;;-4.68;100.00;100320.38;4888479;29;20684;-59
2022/01/25 11:50:02;;;;;;;38.58;13.25;;;;;;;-4.47;100.00;100330.06;4889500;29;20070;-62
2022/01/25 11:53:05;;;;;;;33.70;13.23;;;;;;;-4.94;100.00;100330.31;4892186;29;20087;-57
2022/01/25 11:55:55;;;;;;;34.75;13.07;;;;;;;-4.83;100.00;100306.72;4891394;29;20052;-59
2022/01/25 11:58:41;;;;;;;31.08;12.05;;;;;;;-4.55;100.00;100312.41;4889242;29;20116;-54
2022/01/25 12:01:30;;;;;;;36.63;13.50;;;;;;;-4.65;100.00;100310.16;4886320;29;20055;-54
2022/01/25 12:04:16;;;;;;;34.97;13.57;;;;;;;-4.92;100.00;100309.72;4891545;29;20124;-65
2022/01/25 12:07:08;;;;;;;31.80;12.25;;;;;;;-5.00;100.00;100303.28;4888545;29;20056;-58
2022/01/25 12:10:04;;;;;;;35.47;13.05;;;;;;;-5.21;100.00;100274.69;4888019;29;20071;-53
2022/01/25 12:13:28;;;;;;;;;;;;;;;-4.88;100.00;100279.75;4890555;29;20398;-56
2022/01/25 12:16:27;;;;;;;41.63;15.13;;;;;;;-4.47;100.00;100269.66;4869301;29;19926;-57
2022/01/25 12:19:16;;;;;;;39.00;14.98;;;;;;;-4.35;100.00;100258.19;4867565;29;20152;-64
2022/01/25 12:22:15;;;;;;;35.83;13.70;;;;;;;-4.36;100.00;100265.88;4855141;29;20588;-57
2022/01/25 12:25:33;;;;;;;37.42;14.23;;;;;;;-4.44;100.00;100270.69;4859897;29;20056;-66
2022/01/25 12:28:23;;;;;;;34.63;13.90;;;;;;;-4.28;100.00;100259.34;4868172;29;20052;-70
2022/01/25 12:31:16;;;;;;;37.20;13.70;;;;;;;-4.09;100.00;100259.34;4856933;29;20414;-66
2022/01/25 12:34:26;;;;;;;34.08;13.07;;;;;;;-3.83;100.00;100259.72;4864461;29;20112;-58
2022/01/25 12:37:43;;;;;;;26.48;10.82;;;;;;;-4.15;100.00;100266.84;4864253;29;20234;-64
2022/01/25 12:40:35;;;;;;;31.13;12.88;;;;;;;-4.48;100.00;100276.53;4849660;29;20483;-61
2022/01/25 12:43:26;;;;;;;29.50;12.07;;;;;;;-4.63;100.00;100270.63;4852899;29;20060;-67
2022/01/25 12:46:20;;;;;;;34.13;13.07;;;;;;;-4.59;100.00;100279.44;4861498;29;20079;-59
2022/01/25 12:49:13;;;;;;;31.58;12.43;;;;;;;-4.51;100.00;100278.97;4888315;29;20163;-58
2022/01/25 12:51:59;;;;;;;28.70;11.40;;;;;;;-4.55;100.00;100279.63;4875417;29;20059;-58
2022/01/25 12:54:44;;;;;;;33.13;11.52;;;;;;;-4.83;100.00;100278.25;4890383;29;20165;-60
2022/01/25 12:57:30;;;;;;;30.90;11.30;;;;;;;-4.82;100.00;100270.59;4875366;29;20055;-63
2022/01/25 13:00:15;;;;;;;24.25;9.32;;;;;;;-4.99;100.00;100280.09;4886652;29;20177;-68
2022/01/25 13:03:35;;;;;;;27.88;11.48;;;;;;;-4.83;100.00;100270.50;4860825;29;20108;-58
2022/01/25 13:06:23;;;;;;;32.13;12.70;;;;;;;-4.83;100.00;100286.03;4854924;29;20619;-58
2022/01/25 13:09:28;;;;;;;29.33;11.65;;;;;;;-4.83;100.00;100302.41;4854999;29;20129;-58
2022/01/25 13:12:15;;;;;;;35.08;12.82;;;;;;;-4.90;100.00;100297.78;4842107;29;20085;-64
2022/01/25 13:16:01;;;;;;;27.73;12.23;;;;;;;-4.99;100.00;100284.38;4856242;29;20079;-58
2022/01/25 13:18:15;;;;;;;30.75;11.23;;;;;;;-5.14;100.00;100283.66;4862216;29;20051;-65
2022/01/25 13:21:04;;;;;;;36.05;12.80;;;;;;;-5.11;100.00;100284.66;4870074;29;20720;-57
2022/01/25 13:23:53;;;;;;;30.33;11.75;;;;;;;-5.17;100.00;100255.91;4865897;29;20087;-67
2022/01/25 13:27:01;;;;;;;31.02;12.00;;;;;;;-4.90;100.00;100238.31;4870375;29;20418;-65
2022/01/25 13:32:56;;;;;;;24.88;11.18;;;;;;;-5.02;100.00;100253.22;4839782;29;20048;-64
2022/01/25 13:35:48;;;;;;;31.73;11.85;;;;;;;-4.84;100.00;100245.47;4848085;29;20065;-68
2022/01/25 13:38:42;;;;;;;29.83;11.80;;;;;;;-4.92;100.00;100252.84;4865359;29;20096;-66
2022/01/25 13:41:39;;;;;;;25.40;9.82;;;;;;;-4.94;100.00;100255.34;4860861;29;20092;-58
2022/01/25 13:47:28;;;;;;;24.40;9.95;;;;;;;-4.98;100.00;100240.50;4882301;29;20056;-68
2022/01/25 13:50:15;;;;;;;24.48;9.25;;;;;;;-5.01;100.00;100230.03;4858374;29;20321;-66
2022/01/25 13:53:02;;;;;;;22.85;9.82;;;;;;;-4.87;100.00;100228.97;4886648;29;20064;-58
2022/01/25 13:55:49;;;;;;;26.50;10.60;;;;;;;-4.82;100.00;100206.81;4888658;29;20060;-57
2022/01/25 13:58:38;;;;;;;24.55;10.55;;;;;;;-4.73;100.00;100220.97;4875168;29;20056;-59
2022/01/25 14:01:27;;;;;;;24.23;10.23;;;;;;;-4.92;100.00;100224.41;4881704;29;20081;-61
2022/01/25 14:04:21;;;;;;;29.00;10.98;;;;;;;-5.03;100.00;100221.31;4890198;29;20064;-60
2022/01/25 14:07:06;;;;;;;27.23;10.27;;;;;;;-4.91;100.00;100210.66;4888737;29;20096;-57
2022/01/25 14:09:54;;;;;;;23.08;9.60;;;;;;;-4.90;100.00;100194.34;4881990;29;20140;-69
2022/01/25 14:22:42;;;;;;;19.35;9.05;;;;;;;-5.09;100.00;100187.44;4895167;29;20132;-60
2022/01/25 14:25:44;;;;;;;24.45;10.00;;;;;;;-4.91;100.00;100182.22;4896323;29;20445;-61
2022/01/25 14:28:39;;;;;;;23.17;9.35;;;;;;;-5.05;100.00;100171.25;4888315;29;20062;-56
2022/01/25 14:31:25;;;;;;;23.30;9.93;;;;;;;-5.07;100.00;100162.53;4873805;29;20059;-56
2022/01/25 14:34:12;;;;;;;21.42;9.45;;;;;;;-5.12;100.00;100155.38;4907712;29;20135;-60
2022/01/25 14:36:57;;;;;;;19.70;8.88;;;;;;;-4.89;100.00;100162.50;4891481;29;20739;-61
2022/01/25 14:39:42;;;;;;;;;;;;;;;-4.72;100.00;100158.97;4893134;29;20100;-57